createdAt,value
2022-09-22T00:01:52.523Z,7.50
2022-09-22T00:04:23.573Z,7.50
2022-09-22T00:06:56.370Z,7.40
2022-09-22T00:09:27.218Z,7.40
2022-09-22T00:11:58.075Z,7.50
2022-09-22T00:14:29.169Z,7.50
2022-09-22T00:17:01.501Z,7.60
2022-09-22T00:19:37.644Z,7.50
2022-09-22T00:22:08.516Z,7.60
2022-09-22T00:24:39.485Z,7.50
2022-09-22T00:27:10.313Z,7.50
2022-09-22T00:29:41.735Z,7.40
2022-09-22T00:32:13.570Z,7.30
2022-09-22T00:34:45.045Z,7.20
2022-09-22T00:37:16.486Z,7.30
2022-09-22T00:39:47.355Z,7.20
2022-09-22T00:42:19.797Z,7.20
2022-09-22T00:44:50.705Z,7.20
2022-09-22T00:47:37.584Z,7.00
2022-09-22T00:50:24.817Z,7.00
2022-09-22T00:53:11.203Z,6.90
2022-09-22T00:55:53.308Z,6.90
2022-09-22T00:58:31.917Z,6.90
2022-09-22T01:01:03.254Z,6.90
2022-09-22T01:03:39.200Z,6.90
2022-09-22T01:06:15.018Z,6.80
2022-09-22T01:08:46.356Z,6.90
2022-09-22T01:11:21.537Z,6.90
2022-09-22T01:14:13.287Z,6.90
2022-09-22T01:17:06.672Z,6.80
2022-09-22T01:20:02.536Z,6.80
2022-09-22T01:22:49.807Z,6.90
2022-09-22T01:26:00.384Z,6.80
2022-09-22T01:29:17.832Z,6.80
2022-09-22T01:32:03.103Z,6.70
2022-09-22T01:34:57.646Z,6.70
2022-09-22T01:38:10.557Z,6.60
2022-09-22T01:41:03.799Z,6.60
2022-09-22T01:43:49.177Z,6.50
2022-09-22T01:46:47.375Z,6.50
2022-09-22T01:49:20.972Z,6.60
2022-09-22T01:52:00.617Z,6.40
2022-09-22T01:54:42.834Z,6.50
2022-09-22T01:57:21.304Z,6.50
2022-09-22T02:00:01.616Z,6.40
2022-09-22T02:02:41.111Z,6.40
2022-09-22T02:05:49.594Z,6.40
2022-09-22T02:08:32.495Z,6.30
2022-09-22T02:11:11.763Z,6.30
2022-09-22T02:13:44.641Z,6.20
2022-09-22T02:16:19.815Z,6.30
2022-09-22T02:19:13.537Z,6.10
2022-09-22T02:21:47.606Z,6.10
2022-09-22T02:24:40.866Z,6.10
2022-09-22T02:27:26.338Z,6.20
2022-09-22T02:30:04.950Z,6.10
2022-09-22T02:32:39.848Z,6.10
2022-09-22T02:35:10.989Z,6.20
2022-09-22T02:38:03.295Z,6.40
2022-09-22T02:40:52.722Z,6.60
2022-09-22T02:43:46.223Z,6.50
2022-09-22T02:46:41.564Z,6.60
2022-09-22T02:49:17.642Z,6.30
2022-09-22T02:51:53.028Z,6.10
2022-09-22T02:54:24.133Z,5.90
2022-09-22T02:56:55.188Z,5.80
2022-09-22T02:59:26.082Z,5.80
2022-09-22T03:01:57.016Z,6.00
2022-09-22T03:04:28.220Z,6.10
2022-09-22T03:06:59.082Z,6.10
2022-09-22T03:09:29.960Z,5.90
2022-09-22T03:12:01.096Z,5.80
2022-09-22T03:14:31.970Z,5.80
2022-09-22T03:17:02.824Z,6.00
2022-09-22T03:19:33.723Z,5.90
2022-09-22T03:22:04.803Z,6.00
2022-09-22T03:24:35.667Z,5.90
2022-09-22T03:27:06.521Z,6.00
2022-09-22T03:29:37.429Z,6.20
2022-09-22T03:32:08.262Z,6.00
2022-09-22T03:34:39.131Z,6.00
2022-09-22T03:37:10.092Z,5.90
2022-09-22T03:39:40.992Z,5.80
2022-09-22T03:42:11.883Z,5.80
2022-09-22T03:44:42.800Z,5.60
2022-09-22T03:47:13.634Z,5.70
2022-09-22T03:49:44.507Z,5.90
2022-09-22T03:52:15.391Z,5.80
2022-09-22T03:54:46.262Z,5.80
2022-09-22T03:57:17.123Z,5.70
2022-09-22T03:59:48.042Z,5.70
2022-09-22T04:02:18.960Z,5.60
2022-09-22T04:04:49.890Z,5.80
2022-09-22T04:07:20.826Z,5.80
2022-09-22T04:09:51.728Z,5.80
2022-09-22T04:12:22.632Z,5.80
2022-09-22T04:14:53.553Z,5.80
2022-09-22T04:17:24.560Z,5.80
2022-09-22T04:19:55.530Z,5.70
2022-09-22T04:22:26.366Z,5.80
2022-09-22T04:24:57.913Z,5.60
2022-09-22T04:27:28.790Z,5.60
2022-09-22T04:30:02.024Z,5.60
2022-09-22T04:32:33.999Z,5.40
2022-09-22T04:35:06.157Z,5.50
2022-09-22T04:37:37.205Z,5.50
2022-09-22T04:40:12.251Z,5.40
2022-09-22T04:42:46.682Z,5.20
2022-09-22T04:45:17.832Z,5.30
2022-09-22T04:47:51.836Z,5.20
2022-09-22T04:50:23.470Z,5.20
2022-09-22T04:52:56.268Z,5.40
2022-09-22T04:55:27.757Z,5.50
2022-09-22T04:57:58.818Z,5.40
2022-09-22T05:00:30.705Z,5.40
2022-09-22T05:03:03.506Z,5.40
2022-09-22T05:05:35.082Z,5.30
2022-09-22T05:08:06.104Z,5.20
2022-09-22T05:10:37.297Z,5.10
2022-09-22T05:13:08.516Z,5.30
2022-09-22T05:15:42.450Z,5.40
2022-09-22T05:18:13.326Z,5.30
2022-09-22T05:20:45.468Z,5.20
2022-09-22T05:23:16.432Z,5.20
2022-09-22T05:25:47.280Z,5.20
2022-09-22T05:28:18.141Z,5.20
2022-09-22T05:30:52.413Z,5.20
2022-09-22T05:33:23.269Z,5.30
2022-09-22T05:35:54.274Z,5.20
2022-09-22T05:38:25.135Z,5.20
2022-09-22T05:40:55.957Z,5.20
2022-09-22T05:43:26.817Z,5.20
2022-09-22T05:45:57.846Z,5.20
2022-09-22T05:48:31.341Z,5.20
2022-09-22T05:51:02.677Z,5.20
2022-09-22T05:53:33.586Z,5.20
2022-09-22T05:56:04.776Z,5.10
2022-09-22T05:58:35.679Z,5.20
2022-09-22T06:01:06.616Z,5.30
2022-09-22T06:03:37.573Z,5.50
2022-09-22T06:06:08.419Z,5.60
2022-09-22T06:08:39.298Z,5.80
2022-09-22T06:11:10.180Z,5.90
2022-09-22T06:13:41.037Z,6.10
2022-09-22T06:16:11.967Z,6.20
2022-09-22T06:18:48.454Z,6.20
2022-09-22T06:21:19.288Z,6.30
2022-09-22T06:23:51.670Z,6.40
2022-09-22T06:26:22.501Z,6.50
2022-09-22T06:28:53.399Z,6.50
2022-09-22T06:31:24.585Z,6.50
2022-09-22T06:33:55.685Z,6.60
2022-09-22T06:36:32.324Z,6.60
2022-09-22T06:39:05.256Z,6.50
2022-09-22T06:41:36.310Z,6.60
2022-09-22T06:44:08.135Z,6.80
2022-09-22T06:46:39.332Z,6.80
2022-09-22T06:49:10.200Z,6.90
2022-09-22T06:51:41.161Z,7.00
2022-09-22T06:54:12.058Z,7.10
2022-09-22T06:56:43.415Z,7.20
2022-09-22T06:59:14.498Z,7.20
2022-09-22T07:01:45.910Z,7.40
2022-09-22T07:04:17.753Z,7.70
2022-09-22T07:06:50.576Z,7.90
2022-09-22T07:09:21.418Z,7.90
2022-09-22T07:11:52.345Z,8.10
2022-09-22T07:14:25.441Z,8.10
2022-09-22T07:16:56.305Z,8.20
2022-09-22T07:19:27.167Z,8.10
2022-09-22T07:21:58.812Z,8.10
2022-09-22T07:24:29.655Z,8.30
2022-09-22T07:27:04.264Z,8.20
2022-09-22T07:29:35.160Z,8.30
2022-09-22T07:32:06.383Z,8.40
2022-09-22T07:34:37.300Z,8.60
2022-09-22T07:37:09.067Z,8.80
2022-09-22T07:39:40.169Z,8.90
2022-09-22T07:42:12.319Z,9.00
2022-09-22T07:45:01.780Z,9.10
2022-09-22T07:47:51.139Z,9.10
2022-09-22T07:50:22.712Z,9.20
2022-09-22T07:52:54.360Z,9.40
2022-09-22T07:55:25.670Z,9.40
2022-09-22T07:57:58.817Z,9.50
2022-09-22T08:00:33.673Z,9.80
2022-09-22T08:03:04.666Z,9.90
2022-09-22T08:05:35.557Z,10.00
2022-09-22T08:08:08.102Z,9.90
2022-09-22T08:10:39.237Z,10.00
2022-09-22T08:13:10.194Z,10.20
2022-09-22T08:15:42.359Z,10.30
2022-09-22T08:18:14.371Z,10.50
2022-09-22T08:20:45.291Z,10.50
2022-09-22T08:23:16.141Z,10.60
2022-09-22T08:25:47.007Z,10.70
2022-09-22T08:28:17.927Z,10.80
2022-09-22T08:30:49.155Z,11.00
2022-09-22T08:33:20.015Z,11.10
2022-09-22T08:36:03.622Z,11.20
2022-09-22T08:38:34.989Z,11.20
2022-09-22T08:41:27.605Z,11.40
2022-09-22T08:44:04.562Z,11.50
2022-09-22T08:46:44.358Z,11.60
2022-09-22T08:49:58.329Z,11.70
2022-09-22T08:52:48.436Z,11.80
2022-09-22T08:55:25.269Z,11.90
2022-09-22T08:58:12.536Z,12.00
2022-09-22T09:00:54.001Z,12.10
2022-09-22T09:03:56.076Z,12.20
2022-09-22T09:06:55.249Z,12.40
2022-09-22T09:10:08.040Z,12.50
2022-09-22T09:12:45.379Z,12.70
2022-09-22T09:15:42.568Z,12.80
2022-09-22T09:18:21.030Z,12.70
2022-09-22T09:20:52.382Z,12.90
2022-09-22T09:26:23.632Z,13.00
2022-09-22T09:29:03.906Z,13.10
2022-09-22T09:31:46.181Z,13.20
2022-09-22T09:34:20.377Z,13.30
2022-09-22T09:37:01.630Z,13.40
2022-09-22T09:39:37.157Z,13.50
2022-09-22T09:42:24.926Z,13.60
2022-09-22T09:45:02.456Z,13.70
2022-09-22T09:48:26.354Z,13.80
2022-09-22T09:51:03.777Z,14.00
2022-09-22T09:53:44.826Z,14.00
2022-09-22T09:56:28.924Z,14.10
2022-09-22T09:59:21.742Z,14.20
2022-09-22T10:01:54.472Z,14.30
2022-09-22T10:04:32.826Z,14.40
2022-09-22T10:07:17.128Z,14.50
2022-09-22T10:09:50.792Z,14.60
2022-09-22T10:12:34.855Z,14.70
2022-09-22T10:15:25.632Z,14.80
2022-09-22T10:17:56.638Z,14.80
2022-09-22T10:20:34.026Z,14.90
2022-09-22T10:23:23.455Z,15.00
2022-09-22T10:26:27.388Z,15.20
2022-09-22T10:29:12.247Z,15.30
2022-09-22T10:32:11.923Z,15.40
2022-09-22T10:34:51.546Z,15.40
2022-09-22T10:37:27.129Z,15.50
2022-09-22T10:40:02.013Z,15.60
2022-09-22T10:42:40.957Z,15.60
2022-09-22T10:45:12.542Z,15.80
2022-09-22T10:48:13.091Z,16.30
2022-09-22T10:51:16.406Z,17.50
2022-09-22T10:54:27.551Z,19.00
2022-09-22T10:57:09.399Z,20.50
2022-09-22T10:59:56.407Z,21.10
2022-09-22T11:02:49.734Z,20.90
2022-09-22T11:06:06.359Z,20.80
2022-09-22T11:09:28.016Z,20.60
2022-09-22T11:12:17.554Z,20.80
2022-09-22T11:15:20.307Z,20.90
2022-09-22T11:18:27.182Z,20.30
2022-09-22T11:21:13.769Z,20.60
2022-09-22T11:24:18.060Z,20.10
2022-09-22T11:26:57.236Z,19.90
2022-09-22T11:29:52.487Z,20.00
2022-09-22T11:32:45.405Z,20.10
2022-09-22T11:36:02.869Z,20.00
2022-09-22T11:39:21.206Z,20.20
2022-09-22T11:42:21.546Z,20.60
2022-09-22T11:45:10.497Z,20.20
2022-09-22T11:48:11.430Z,19.90
2022-09-22T11:51:42.828Z,20.10
2022-09-22T11:54:47.043Z,20.40
2022-09-22T11:57:23.845Z,20.40
2022-09-22T12:00:13.144Z,20.30
2022-09-22T12:02:54.868Z,20.20
2022-09-22T12:05:41.652Z,20.20
2022-09-22T12:08:23.683Z,20.70
2022-09-22T12:10:55.860Z,20.50
2022-09-22T12:13:31.000Z,20.40
2022-09-22T12:16:55.456Z,20.60
2022-09-22T12:19:56.736Z,20.50
2022-09-22T12:23:10.056Z,20.50
2022-09-22T12:26:12.638Z,20.70
2022-09-22T12:28:48.439Z,20.70
2022-09-22T12:31:20.884Z,20.90
2022-09-22T12:33:55.142Z,20.60
2022-09-22T12:36:32.637Z,20.50
2022-09-22T12:39:19.199Z,20.70
2022-09-22T12:42:14.804Z,20.70
2022-09-22T12:44:52.124Z,21.00
2022-09-22T12:47:48.762Z,20.90
2022-09-22T12:50:42.129Z,20.70
2022-09-22T12:53:22.271Z,20.80
2022-09-22T12:55:57.421Z,20.90
2022-09-22T12:58:31.278Z,21.00
2022-09-22T13:01:32.513Z,21.30
2022-09-22T13:04:17.011Z,21.30
2022-09-22T13:06:47.780Z,21.90
2022-09-22T13:09:25.909Z,21.70
2022-09-22T13:12:12.054Z,22.00
2022-09-22T13:15:08.999Z,22.00
2022-09-22T13:17:49.601Z,22.00
2022-09-22T13:20:29.779Z,22.20
2022-09-22T13:23:18.987Z,22.30
2022-09-22T13:25:51.826Z,22.40
2022-09-22T13:28:26.064Z,22.30
2022-09-22T13:31:09.832Z,22.30
2022-09-22T13:33:41.292Z,22.10
2022-09-22T13:36:18.946Z,22.30
2022-09-22T13:38:55.284Z,22.50
2022-09-22T13:41:34.353Z,22.50
2022-09-22T13:44:11.821Z,22.60
2022-09-22T13:46:48.274Z,22.70
2022-09-22T13:49:37.961Z,22.80
2022-09-22T13:52:16.419Z,22.90
2022-09-22T13:54:55.235Z,22.90
2022-09-22T13:57:32.092Z,22.80
2022-09-22T14:00:05.943Z,22.70
2022-09-22T14:02:45.330Z,22.60
2022-09-22T14:05:28.185Z,22.80
2022-09-22T14:08:12.970Z,22.70
2022-09-22T14:10:47.145Z,22.70
2022-09-22T14:13:52.852Z,22.80
2022-09-22T14:17:14.292Z,22.30
2022-09-22T14:19:55.698Z,22.10
2022-09-22T14:22:34.326Z,22.50
2022-09-22T14:25:06.594Z,22.80
2022-09-22T14:27:59.800Z,23.10
2022-09-22T14:30:31.397Z,23.20
2022-09-22T14:33:04.081Z,23.00
2022-09-22T14:35:37.273Z,23.20
2022-09-22T14:38:14.578Z,23.20
2022-09-22T14:40:58.708Z,23.10
2022-09-22T14:43:42.249Z,22.80
2022-09-22T14:46:41.420Z,23.10
2022-09-22T14:49:43.531Z,23.30
2022-09-22T14:52:30.892Z,23.60
2022-09-22T14:55:13.918Z,23.00
2022-09-22T14:57:48.537Z,22.90
2022-09-22T15:00:38.419Z,23.20
2022-09-22T15:03:27.140Z,23.40
2022-09-22T15:06:11.524Z,23.10
2022-09-22T15:08:48.825Z,23.30
2022-09-22T15:11:19.840Z,23.20
2022-09-22T15:13:57.032Z,23.20
2022-09-22T15:16:43.392Z,23.20
2022-09-22T15:19:14.407Z,22.90
2022-09-22T15:21:47.432Z,22.60
2022-09-22T15:24:26.993Z,22.90
2022-09-22T15:27:00.179Z,22.40
2022-09-22T15:29:32.398Z,22.20
2022-09-22T15:32:03.845Z,22.30
2022-09-22T15:34:34.768Z,22.50
2022-09-22T15:37:05.713Z,22.50
2022-09-22T15:39:37.028Z,22.70
2022-09-22T15:42:11.619Z,22.80
2022-09-22T15:44:43.126Z,22.30
2022-09-22T15:47:16.602Z,22.50
2022-09-22T15:49:47.579Z,22.60
2022-09-22T15:52:18.403Z,22.30
2022-09-22T15:54:49.252Z,22.40
2022-09-22T15:57:20.094Z,22.30
2022-09-22T15:59:51.657Z,22.20
2022-09-22T16:02:23.485Z,22.20
2022-09-22T16:04:55.681Z,22.40
2022-09-22T16:07:26.577Z,22.60
2022-09-22T16:09:57.398Z,22.60
2022-09-22T16:12:28.466Z,22.60
2022-09-22T16:14:59.436Z,22.60
2022-09-22T16:17:30.307Z,22.50
2022-09-22T16:20:01.920Z,22.40
2022-09-22T16:22:33.901Z,22.50
2022-09-22T16:25:06.122Z,22.20
2022-09-22T16:27:39.195Z,22.00
2022-09-22T16:30:10.792Z,21.90
2022-09-22T16:32:43.440Z,21.90
2022-09-22T16:35:14.330Z,22.10
2022-09-22T16:37:45.890Z,22.30
2022-09-22T16:40:16.864Z,22.00
2022-09-22T16:42:48.679Z,22.00
2022-09-22T16:45:39.480Z,21.60
2022-09-22T16:48:10.420Z,21.30
2022-09-22T16:50:43.429Z,21.40
2022-09-22T16:53:14.342Z,21.20
2022-09-22T16:55:48.785Z,21.00
2022-09-22T16:58:19.978Z,20.70
2022-09-22T17:00:50.862Z,20.50
2022-09-22T17:03:22.499Z,20.20
2022-09-22T17:06:06.666Z,19.70
2022-09-22T17:08:44.337Z,19.50
2022-09-22T17:11:15.391Z,19.20
2022-09-22T17:13:47.475Z,19.00
2022-09-22T17:16:27.532Z,18.80
2022-09-22T17:19:08.139Z,18.50
2022-09-22T17:21:40.245Z,18.20
2022-09-22T17:24:11.174Z,18.00
2022-09-22T17:26:47.437Z,17.70
2022-09-22T17:29:25.202Z,17.60
2022-09-22T17:32:04.386Z,17.60
2022-09-22T17:34:38.342Z,17.40
2022-09-22T17:37:14.116Z,17.10
2022-09-22T17:39:45.053Z,17.00
2022-09-22T17:42:16.158Z,16.80
2022-09-22T17:44:47.239Z,16.60
2022-09-22T17:47:36.728Z,16.50
2022-09-22T17:50:30.662Z,16.50
2022-09-22T17:53:19.830Z,16.30
2022-09-22T17:55:52.723Z,16.20
2022-09-22T17:58:23.922Z,16.10
2022-09-22T18:00:55.344Z,16.00
2022-09-22T18:03:26.520Z,15.90
2022-09-22T18:05:58.359Z,15.90
2022-09-22T18:08:29.276Z,15.80
2022-09-22T18:11:01.228Z,15.70
2022-09-22T18:13:35.151Z,15.70
2022-09-22T18:16:23.213Z,15.50
2022-09-22T18:18:54.121Z,15.50
2022-09-22T18:21:24.956Z,15.40
2022-09-22T18:23:55.808Z,15.30
2022-09-22T18:26:38.283Z,15.30
2022-09-22T18:29:10.123Z,15.20
2022-09-22T18:31:42.070Z,15.10
2022-09-22T18:34:13.055Z,15.10
2022-09-22T18:36:45.461Z,14.90
2022-09-22T18:39:17.442Z,14.90
2022-09-22T18:41:49.903Z,14.90
2022-09-22T18:44:29.152Z,15.00
2022-09-22T18:47:02.190Z,14.80
2022-09-22T18:49:36.658Z,14.70
2022-09-22T18:52:10.173Z,14.60
2022-09-22T18:54:42.991Z,14.50
2022-09-22T18:57:13.947Z,14.40
2022-09-22T18:59:44.803Z,14.40
2022-09-22T19:02:15.821Z,14.30
2022-09-22T19:04:46.866Z,14.20
2022-09-22T19:07:41.113Z,14.10
2022-09-22T19:10:18.876Z,13.90
2022-09-22T19:12:50.182Z,13.70
2022-09-22T19:15:21.147Z,13.80
2022-09-22T19:17:52.095Z,13.70
2022-09-22T19:20:24.119Z,13.60
2022-09-22T19:22:55.461Z,13.60
2022-09-22T19:25:26.811Z,13.50
2022-09-22T19:27:57.778Z,13.40
2022-09-22T19:30:31.528Z,13.30
2022-09-22T19:33:02.724Z,13.20
2022-09-22T19:35:38.429Z,13.20
2022-09-22T19:38:10.358Z,13.10
2022-09-22T19:40:41.408Z,13.10
2022-09-22T19:43:12.510Z,13.10
2022-09-22T19:45:43.723Z,12.90
2022-09-22T19:48:15.997Z,12.80
2022-09-22T19:50:47.256Z,12.80
2022-09-22T19:53:18.244Z,12.70
2022-09-22T19:55:49.167Z,12.70
2022-09-22T19:58:20.051Z,12.60
2022-09-22T20:00:52.326Z,12.70
2022-09-22T20:03:23.233Z,12.60
2022-09-22T20:05:54.150Z,12.50
2022-09-22T20:08:27.100Z,12.50
2022-09-22T20:11:16.347Z,12.50
2022-09-22T20:14:07.807Z,12.30
2022-09-22T20:16:38.749Z,12.20
2022-09-22T20:19:10.242Z,12.20
2022-09-22T20:21:45.628Z,12.10
2022-09-22T20:24:19.971Z,12.00
2022-09-22T20:26:52.936Z,11.90
2022-09-22T20:29:24.205Z,11.80
2022-09-22T20:31:55.252Z,11.60
2022-09-22T20:34:26.117Z,11.60
2022-09-22T20:36:57.202Z,11.60
2022-09-22T20:39:28.061Z,11.50
2022-09-22T20:41:59.777Z,11.50
2022-09-22T20:44:31.294Z,11.40
2022-09-22T20:47:02.614Z,12.00
2022-09-22T20:49:35.301Z,12.10
2022-09-22T20:52:06.231Z,11.80
2022-09-22T20:54:37.105Z,11.80
2022-09-22T20:57:08.034Z,11.60
2022-09-22T20:59:39.202Z,11.50
2022-09-22T21:02:11.963Z,11.40
2022-09-22T21:04:42.915Z,11.40
2022-09-22T21:07:13.827Z,11.40
2022-09-22T21:10:03.959Z,11.30
2022-09-22T21:12:34.884Z,11.20
2022-09-22T21:15:06.419Z,11.30
2022-09-22T21:17:40.981Z,11.20
2022-09-22T21:20:14.408Z,11.20
2022-09-22T21:22:45.350Z,11.20
2022-09-22T21:25:16.332Z,11.00
2022-09-22T21:27:47.252Z,10.90
2022-09-22T21:30:18.259Z,10.90
2022-09-22T21:32:49.099Z,10.80
2022-09-22T21:35:20.015Z,10.80
2022-09-22T21:37:55.087Z,10.80
2022-09-22T21:40:26.083Z,10.70
2022-09-22T21:42:59.783Z,10.80
2022-09-22T21:45:30.693Z,10.70
2022-09-22T21:48:01.827Z,10.60
2022-09-22T21:50:32.772Z,10.50
2022-09-22T21:53:03.604Z,10.50
2022-09-22T21:55:34.550Z,10.50
2022-09-22T21:58:05.437Z,10.40
2022-09-22T22:00:51.223Z,10.30
2022-09-22T22:03:32.815Z,10.30
2022-09-22T22:06:19.489Z,10.20
2022-09-22T22:09:01.516Z,10.10
2022-09-22T22:11:37.497Z,10.00
2022-09-22T22:14:12.057Z,10.10
2022-09-22T22:16:46.267Z,10.00
2022-09-22T22:19:21.010Z,9.90
2022-09-22T22:21:52.489Z,9.80
2022-09-22T22:24:40.882Z,9.80
2022-09-22T22:27:13.666Z,9.80
2022-09-22T22:29:45.989Z,9.70
2022-09-22T22:32:16.858Z,9.60
2022-09-22T22:34:47.993Z,9.70
2022-09-22T22:37:18.990Z,9.60
2022-09-22T22:39:49.949Z,9.50
2022-09-22T22:42:20.918Z,9.60
2022-09-22T22:44:51.953Z,9.50
2022-09-22T22:47:22.863Z,9.50
2022-09-22T22:49:53.814Z,9.50
2022-09-22T22:52:24.685Z,9.50
2022-09-22T22:54:55.618Z,9.50
2022-09-22T22:57:27.583Z,9.50
2022-09-22T22:59:58.529Z,9.50
2022-09-22T23:02:30.818Z,9.50
2022-09-22T23:05:01.813Z,9.60
2022-09-22T23:07:32.695Z,9.60
2022-09-22T23:10:06.913Z,9.40
2022-09-22T23:12:41.040Z,9.30
2022-09-22T23:15:12.390Z,9.20
2022-09-22T23:17:43.445Z,9.10
2022-09-22T23:20:15.451Z,9.10
2022-09-22T23:22:46.439Z,9.00
2022-09-22T23:25:17.840Z,9.00
2022-09-22T23:27:48.751Z,8.90
2022-09-22T23:30:19.860Z,8.90
2022-09-22T23:32:50.896Z,8.90
2022-09-22T23:35:21.727Z,8.80
2022-09-22T23:37:52.534Z,8.90
2022-09-22T23:40:23.587Z,8.80
2022-09-22T23:42:54.538Z,8.70
2022-09-22T23:45:26.370Z,8.60
2022-09-22T23:47:57.356Z,8.70
2022-09-22T23:50:30.587Z,8.60
2022-09-22T23:53:01.563Z,8.70
2022-09-22T23:55:33.055Z,8.70
2022-09-22T23:58:05.223Z,8.70
